Haynesville, Maine
Current Conditions -  °F | °C
As of 2:53 PM on Thursday 18 Dec 2014 (Local Time) from KHUL Reporting Station
Overcast Overcast  
Wind Chill: 19°   Ceiling: 1700
Heat Index: 29°   Visibility: 9mi
Dew Point: 25°   Wind: 12mph
Humidity: 85%   Direction: 320°NW
Pressure: 29.53"   Gusts: 18mph
Location:  45.7877°N, 68.0764°W
Report Text: KHUL 181953Z AUTO 32010G16KT 9SM OVC017 M02/M04 A2953 RMK AO2 SNE45 SLP005 P0000 T10171039
Loading
Personal Weather Stations






























Interactive Weather Map New forecast layout! Learn more

10-Day Weather Forecast

Advertisements
Track Severe Weather on mobile